createdAt,value
2022-11-20T00:02:29.305Z,75.22
2022-11-20T00:05:34.608Z,74.35
2022-11-20T00:08:38.150Z,73.75
2022-11-20T00:11:42.745Z,75.43
2022-11-20T00:14:45.917Z,72.32
2022-11-20T00:17:49.137Z,74.20
2022-11-20T00:20:52.293Z,72.00
2022-11-20T00:23:58.089Z,73.28
2022-11-20T00:27:02.781Z,71.68
2022-11-20T00:30:09.081Z,70.80
2022-11-20T00:33:14.334Z,67.15
2022-11-20T00:36:19.321Z,72.18
2022-11-20T00:39:22.809Z,72.03
2022-11-20T00:42:27.777Z,76.43
2022-11-20T00:45:31.013Z,79.07
2022-11-20T00:48:34.779Z,71.35
2022-11-20T00:51:37.928Z,65.15
2022-11-20T00:54:41.207Z,62.85
2022-11-20T00:57:45.866Z,66.95
2022-11-20T01:00:50.428Z,63.75
2022-11-20T01:03:54.859Z,78.85
2022-11-20T01:06:58.208Z,62.70
2022-11-20T01:10:01.533Z,60.67
2022-11-20T01:13:25.781Z,55.95
2022-11-20T01:16:30.677Z,62.97
2022-11-20T01:19:33.974Z,64.07
2022-11-20T01:22:37.160Z,56.88
2022-11-20T01:25:40.682Z,60.45
2022-11-20T01:28:45.456Z,63.03
2022-11-20T01:31:48.786Z,61.13
2022-11-20T01:34:51.975Z,53.05
2022-11-20T01:37:55.242Z,52.90
2022-11-20T01:40:58.541Z,49.35
2022-11-20T01:44:03.581Z,53.88
2022-11-20T01:47:09.531Z,62.85
2022-11-20T01:50:16.647Z,57.63
2022-11-20T01:53:24.054Z,57.88
2022-11-20T01:56:29.093Z,71.65
2022-11-20T01:59:33.669Z,94.22
2022-11-20T02:02:37.562Z,116.32
2022-11-20T02:05:45.547Z,73.32
2022-11-20T02:08:48.872Z,63.78
2022-11-20T02:11:52.100Z,74.72
2022-11-20T02:14:55.713Z,73.63
2022-11-20T02:17:59.073Z,58.33
2022-11-20T02:21:08.261Z,45.85
2022-11-20T02:24:16.131Z,44.53
2022-11-20T02:27:23.521Z,132.50
2022-11-20T02:30:26.824Z,182.85
2022-11-20T02:33:29.937Z,162.45
2022-11-20T02:36:34.865Z,59.80
2022-11-20T02:39:39.568Z,78.10
2022-11-20T02:42:42.721Z,55.45
2022-11-20T02:45:45.881Z,50.58
2022-11-20T02:48:49.251Z,51.67
2022-11-20T02:51:52.555Z,56.22
2022-11-20T02:54:57.187Z,57.17
2022-11-20T02:58:00.352Z,49.20
2022-11-20T03:01:03.616Z,46.03
2022-11-20T03:04:07.389Z,42.20
2022-11-20T03:07:11.297Z,44.40
2022-11-20T03:10:16.022Z,41.83
2022-11-20T03:13:19.170Z,40.10
2022-11-20T03:16:24.906Z,42.72
2022-11-20T03:19:28.086Z,40.78
2022-11-20T03:22:32.024Z,41.38
2022-11-20T03:25:36.615Z,40.20
2022-11-20T03:28:39.942Z,39.10
2022-11-20T03:31:43.529Z,36.75
2022-11-20T03:34:46.692Z,37.72
2022-11-20T03:37:50.108Z,37.75
2022-11-20T03:41:01.098Z,36.08
2022-11-20T03:44:06.302Z,37.25
2022-11-20T03:47:09.475Z,36.50
2022-11-20T03:50:14.664Z,35.20
2022-11-20T03:53:18.417Z,35.53
2022-11-20T03:56:25.916Z,34.00
2022-11-20T03:59:29.059Z,35.20
2022-11-20T04:02:32.299Z,34.85
2022-11-20T04:05:36.128Z,35.05
2022-11-20T04:08:40.020Z,34.28
2022-11-20T04:11:44.513Z,34.00
2022-11-20T04:14:47.646Z,34.65
2022-11-20T04:17:50.964Z,35.38
2022-11-20T04:20:54.083Z,34.10
2022-11-20T04:23:57.893Z,34.63
2022-11-20T04:27:02.661Z,34.45
2022-11-20T04:30:06.953Z,33.67
2022-11-20T04:33:10.407Z,35.08
2022-11-20T04:36:16.771Z,37.45
2022-11-20T04:39:20.454Z,36.90
2022-11-20T04:42:31.518Z,38.88
2022-11-20T04:45:34.719Z,37.88
2022-11-20T04:48:37.930Z,38.95
2022-11-20T04:51:41.109Z,40.45
2022-11-20T04:54:44.451Z,39.83
2022-11-20T04:57:52.460Z,41.72
2022-11-20T05:00:55.808Z,41.97
2022-11-20T05:03:59.291Z,41.63
2022-11-20T05:07:02.657Z,42.10
2022-11-20T05:10:06.883Z,42.22
2022-11-20T05:13:11.700Z,43.90
2022-11-20T05:16:17.069Z,41.85
2022-11-20T05:19:20.552Z,40.67
2022-11-20T05:22:24.020Z,40.15
2022-11-20T05:25:27.394Z,38.97
2022-11-20T05:28:33.249Z,39.70
2022-11-20T05:31:37.283Z,40.65
2022-11-20T05:34:40.434Z,39.45
2022-11-20T05:37:43.525Z,37.80
2022-11-20T05:40:46.626Z,37.90
2022-11-20T05:43:51.805Z,39.00
2022-11-20T05:46:54.902Z,37.97
2022-11-20T05:49:58.267Z,37.53
2022-11-20T05:53:02.419Z,39.17
2022-11-20T05:56:07.302Z,37.83
2022-11-20T05:59:12.101Z,38.53
2022-11-20T06:02:15.362Z,38.65
2022-11-20T06:05:18.647Z,38.92
2022-11-20T06:08:21.968Z,38.58
2022-11-20T06:11:25.289Z,37.63
2022-11-20T06:14:29.886Z,38.33
2022-11-20T06:17:33.055Z,38.85
2022-11-20T06:20:41.841Z,38.72
2022-11-20T06:23:46.246Z,38.53
2022-11-20T06:26:49.568Z,38.65
2022-11-20T06:29:54.138Z,39.22
2022-11-20T06:32:57.429Z,41.60
2022-11-20T06:36:05.685Z,41.50
2022-11-20T06:39:10.937Z,42.60
2022-11-20T06:42:14.111Z,43.47
2022-11-20T06:45:18.942Z,42.65
2022-11-20T06:48:22.507Z,43.90
2022-11-20T06:51:26.141Z,45.30
2022-11-20T06:54:29.701Z,47.75
2022-11-20T06:57:32.915Z,48.60
2022-11-20T07:00:37.617Z,47.88
2022-11-20T07:03:41.443Z,46.97
2022-11-20T07:06:45.065Z,48.40
2022-11-20T07:09:48.247Z,47.25
2022-11-20T07:12:52.698Z,47.03
2022-11-20T07:16:03.507Z,48.38
2022-11-20T07:19:06.775Z,47.35
2022-11-20T07:22:10.553Z,47.20
2022-11-20T07:25:13.819Z,46.28
2022-11-20T07:28:17.569Z,46.67
2022-11-20T07:31:22.355Z,48.88
2022-11-20T07:34:25.721Z,49.17
2022-11-20T07:37:29.597Z,47.47
2022-11-20T07:40:33.163Z,43.47
2022-11-20T07:43:40.961Z,44.33
2022-11-20T07:46:46.086Z,43.63
2022-11-20T07:49:50.707Z,45.78
2022-11-20T07:52:54.209Z,41.22
2022-11-20T07:56:01.112Z,40.30
2022-11-20T07:59:05.237Z,36.58
2022-11-20T08:02:12.671Z,37.63
2022-11-20T08:05:15.911Z,37.67
2022-11-20T08:08:19.165Z,36.55
2022-11-20T08:11:39.568Z,37.40
2022-11-20T08:14:42.793Z,36.85
2022-11-20T08:18:08.260Z,36.58
2022-11-20T08:21:10.683Z,34.58
2022-11-20T08:24:14.554Z,30.95
2022-11-20T08:27:17.754Z,32.80
2022-11-20T08:30:21.058Z,31.90
2022-11-20T08:33:25.623Z,32.58
2022-11-20T08:36:29.304Z,32.42
2022-11-20T08:39:32.515Z,32.13
2022-11-20T08:42:35.653Z,32.55
2022-11-20T08:45:39.165Z,34.53
2022-11-20T08:48:44.081Z,34.53
2022-11-20T08:51:49.349Z,35.58
2022-11-20T08:54:52.549Z,34.90
2022-11-20T08:57:55.839Z,33.67
2022-11-20T09:00:59.356Z,33.97
2022-11-20T09:04:05.696Z,33.80
2022-11-20T09:07:09.328Z,34.65
2022-11-20T09:10:27.877Z,33.95
2022-11-20T09:13:31.817Z,34.83
2022-11-20T09:16:35.171Z,35.03
2022-11-20T09:19:39.771Z,31.88
2022-11-20T09:22:42.997Z,31.92
2022-11-20T09:25:46.284Z,32.70
2022-11-20T09:28:52.847Z,31.85
2022-11-20T09:31:58.704Z,42.78
2022-11-20T09:35:03.360Z,47.03
2022-11-20T09:38:08.401Z,41.42
2022-11-20T09:41:29.686Z,35.10
2022-11-20T09:44:50.928Z,29.58
2022-11-20T09:48:11.265Z,28.65
2022-11-20T09:54:32.276Z,29.75
2022-11-20T09:57:39.076Z,28.67
2022-11-20T10:00:42.467Z,29.45
2022-11-20T10:03:56.306Z,28.52
2022-11-20T10:07:31.331Z,28.08
2022-11-20T10:10:43.787Z,28.02
2022-11-20T10:14:01.400Z,29.30
2022-11-20T10:17:14.824Z,28.17
2022-11-20T10:20:26.799Z,28.30
2022-11-20T10:23:46.626Z,33.58
2022-11-20T10:26:57.834Z,31.58
2022-11-20T10:30:06.161Z,33.60
2022-11-20T10:33:18.692Z,30.20
2022-11-20T10:36:26.174Z,31.33
2022-11-20T10:39:37.563Z,30.42
2022-11-20T10:42:47.094Z,32.47
2022-11-20T10:45:57.871Z,21.95
2022-11-20T10:49:01.860Z,28.27
2022-11-20T10:52:15.009Z,27.10
2022-11-20T10:55:30.870Z,27.45
2022-11-20T10:58:42.597Z,29.83
2022-11-20T11:01:45.960Z,32.55
2022-11-20T11:04:51.131Z,29.90
2022-11-20T11:07:57.561Z,28.88
2022-11-20T11:11:13.915Z,31.65
2022-11-20T11:14:18.270Z,31.67
2022-11-20T11:17:38.126Z,30.02
2022-11-20T11:20:51.688Z,27.25
2022-11-20T11:24:26.953Z,28.35
2022-11-20T11:27:28.692Z,28.40
2022-11-20T11:30:43.246Z,29.55
2022-11-20T11:33:46.486Z,24.63
2022-11-20T11:36:57.504Z,25.05
2022-11-20T11:40:23.502Z,27.15
2022-11-20T11:43:48.523Z,33.72
2022-11-20T11:46:56.808Z,28.05
2022-11-20T11:50:05.158Z,32.03
2022-11-20T11:53:14.416Z,26.48
2022-11-20T11:56:17.947Z,19.33
2022-11-20T11:59:29.179Z,24.10
2022-11-20T12:02:38.868Z,25.30
2022-11-20T12:05:46.759Z,25.73
2022-11-20T12:08:55.351Z,25.00
2022-11-20T12:12:07.125Z,24.60
2022-11-20T12:15:15.409Z,26.15
2022-11-20T12:18:21.847Z,25.92
2022-11-20T12:21:36.163Z,26.85
2022-11-20T12:24:54.242Z,28.50
2022-11-20T12:28:19.848Z,28.33
2022-11-20T12:31:45.409Z,29.70
2022-11-20T12:35:07.254Z,29.67
2022-11-20T12:38:47.311Z,28.40
2022-11-20T12:42:22.206Z,27.33
2022-11-20T12:45:50.699Z,27.65
2022-11-20T12:49:14.044Z,29.90
2022-11-20T12:52:32.114Z,30.08
2022-11-20T12:55:44.204Z,28.92
2022-11-20T12:59:02.512Z,35.28
2022-11-20T13:02:20.951Z,33.70
2022-11-20T13:05:34.230Z,31.17
2022-11-20T13:08:40.456Z,29.65
2022-11-20T13:11:50.737Z,28.60
2022-11-20T13:15:01.431Z,34.10
2022-11-20T13:18:10.772Z,34.03
2022-11-20T13:21:22.876Z,29.13
2022-11-20T13:24:31.004Z,28.77
2022-11-20T13:27:34.936Z,41.38
2022-11-20T13:30:51.592Z,122.20
2022-11-20T13:33:57.273Z,41.83
2022-11-20T13:37:04.734Z,44.20
2022-11-20T13:40:15.234Z,61.58
2022-11-20T13:43:24.947Z,44.40
2022-11-20T13:46:39.289Z,35.05
2022-11-20T13:49:45.403Z,315.05
2022-11-20T13:53:04.045Z,181.93
2022-11-20T13:56:16.331Z,48.75
2022-11-20T13:59:39.398Z,70.85
2022-11-20T14:02:43.561Z,39.60
2022-11-20T14:05:56.905Z,35.90
2022-11-20T14:09:03.028Z,45.38
2022-11-20T14:12:16.525Z,193.57
2022-11-20T14:15:28.162Z,319.77
2022-11-20T14:18:31.498Z,44.38
2022-11-20T14:21:35.854Z,42.90
2022-11-20T14:24:40.689Z,84.40
2022-11-20T14:27:46.787Z,129.48
2022-11-20T14:30:51.283Z,40.97
2022-11-20T14:33:55.901Z,35.42
2022-11-20T14:37:02.640Z,106.70
2022-11-20T14:40:25.931Z,74.40
2022-11-20T14:43:30.859Z,61.83
2022-11-20T14:46:35.497Z,39.90
2022-11-20T14:49:40.012Z,43.00
2022-11-20T14:52:53.029Z,42.55
2022-11-20T14:56:03.186Z,42.22
2022-11-20T14:59:06.737Z,59.35
2022-11-20T15:02:13.175Z,53.15
2022-11-20T15:05:17.487Z,51.83
2022-11-20T15:08:21.071Z,69.68
2022-11-20T15:11:31.497Z,112.95
2022-11-20T15:14:35.791Z,73.15
2022-11-20T15:17:41.106Z,79.65
2022-11-20T15:20:45.349Z,85.80
2022-11-20T15:23:48.860Z,74.25
2022-11-20T15:26:53.918Z,88.40
2022-11-20T15:29:57.239Z,72.63
2022-11-20T15:33:00.565Z,68.05
2022-11-20T15:36:04.054Z,246.93
2022-11-20T15:39:08.073Z,220.77
2022-11-20T15:42:12.713Z,83.88
2022-11-20T15:45:16.978Z,128.75
2022-11-20T15:48:22.482Z,75.28
2022-11-20T15:51:29.067Z,57.20
2022-11-20T15:54:35.951Z,164.85
2022-11-20T15:57:40.513Z,91.88
2022-11-20T16:00:43.705Z,79.63
2022-11-20T16:03:47.238Z,68.43
2022-11-20T16:06:50.369Z,63.17
2022-11-20T16:09:53.656Z,71.88
2022-11-20T16:13:15.491Z,119.15
2022-11-20T16:16:23.571Z,72.50
2022-11-20T16:19:27.023Z,60.60
2022-11-20T16:22:30.401Z,55.75
2022-11-20T16:25:33.937Z,53.20
2022-11-20T16:28:38.557Z,54.13
2022-11-20T16:31:42.019Z,54.35
2022-11-20T16:34:45.296Z,52.38
2022-11-20T16:37:48.503Z,52.85
2022-11-20T16:40:52.197Z,52.38
2022-11-20T16:43:59.109Z,52.08
2022-11-20T16:47:02.710Z,54.15
2022-11-20T16:50:07.424Z,56.92
2022-11-20T16:53:10.862Z,57.55
2022-11-20T16:56:16.080Z,56.30
2022-11-20T16:59:20.988Z,56.25
2022-11-20T17:02:24.528Z,59.10
2022-11-20T17:05:30.581Z,62.55
2022-11-20T17:08:33.895Z,71.47
2022-11-20T17:11:38.487Z,94.93
2022-11-20T17:14:43.168Z,110.22
2022-11-20T17:17:46.505Z,137.25
2022-11-20T17:20:53.800Z,135.48
2022-11-20T17:23:57.245Z,133.50
2022-11-20T17:27:00.580Z,138.10
2022-11-20T17:30:05.783Z,129.68
2022-11-20T17:33:09.012Z,122.25
2022-11-20T17:36:14.807Z,105.50
2022-11-20T17:39:19.491Z,104.53
2022-11-20T17:42:29.707Z,103.63
2022-11-20T17:45:37.464Z,106.15
2022-11-20T17:48:44.084Z,100.05
2022-11-20T17:52:02.361Z,102.00
2022-11-20T17:55:06.195Z,103.50
2022-11-20T17:58:08.493Z,102.13
2022-11-20T18:01:13.220Z,99.43
2022-11-20T18:04:16.656Z,101.30
2022-11-20T18:07:20.030Z,90.85
2022-11-20T18:10:23.376Z,89.18
2022-11-20T18:13:47.965Z,90.47
2022-11-20T18:16:55.807Z,94.57
2022-11-20T18:20:31.081Z,90.85
2022-11-20T18:23:23.096Z,104.25
2022-11-20T18:26:27.556Z,98.55
2022-11-20T18:29:31.728Z,93.32
2022-11-20T18:32:37.644Z,92.13
2022-11-20T18:35:43.129Z,84.20
2022-11-20T18:38:48.498Z,75.70
2022-11-20T18:42:09.426Z,73.95
2022-11-20T18:45:12.821Z,69.40
2022-11-20T18:48:18.156Z,85.85
2022-11-20T18:51:21.599Z,81.90
2022-11-20T18:54:28.133Z,73.40
2022-11-20T18:57:32.532Z,92.45
2022-11-20T19:00:36.877Z,95.50
2022-11-20T19:03:42.892Z,102.93
2022-11-20T19:06:49.283Z,249.32
2022-11-20T19:09:53.958Z,154.35
2022-11-20T19:12:58.640Z,156.32
2022-11-20T19:16:04.060Z,149.50
2022-11-20T19:19:08.925Z,177.15
2022-11-20T19:22:14.104Z,147.05
2022-11-20T19:25:17.785Z,212.43
2022-11-20T19:28:21.152Z,225.02
2022-11-20T19:31:26.905Z,128.52
2022-11-20T19:34:34.516Z,108.88
2022-11-20T19:37:37.889Z,137.35
2022-11-20T19:40:41.525Z,72.25
2022-11-20T19:43:49.714Z,66.65
2022-11-20T19:46:53.304Z,71.53
2022-11-20T19:49:58.079Z,72.28
2022-11-20T19:53:02.431Z,64.60
2022-11-20T19:56:06.934Z,65.28
2022-11-20T19:59:10.707Z,79.93
2022-11-20T20:02:14.411Z,67.70
2022-11-20T20:05:19.175Z,66.28
2022-11-20T20:08:22.517Z,74.10
2022-11-20T20:11:27.700Z,66.63
2022-11-20T20:14:32.068Z,77.60
2022-11-20T20:17:35.455Z,94.82
2022-11-20T20:20:40.310Z,128.10
2022-11-20T20:23:44.137Z,75.93
2022-11-20T20:26:47.469Z,88.65
2022-11-20T20:29:50.752Z,68.22
2022-11-20T20:32:56.417Z,78.20
2022-11-20T20:36:01.739Z,83.70
2022-11-20T20:39:05.242Z,76.05
2022-11-20T20:42:08.513Z,73.93
2022-11-20T20:45:12.680Z,68.50
2022-11-20T20:48:16.600Z,92.13
2022-11-20T20:51:21.655Z,83.45
2022-11-20T20:54:24.970Z,89.05
2022-11-20T20:57:28.951Z,71.82
2022-11-20T21:00:32.689Z,58.85
2022-11-20T21:03:37.501Z,92.63
2022-11-20T21:06:42.684Z,74.88
2022-11-20T21:09:48.837Z,76.10
2022-11-20T21:12:52.398Z,73.35
2022-11-20T21:15:55.919Z,55.35
2022-11-20T21:18:59.464Z,79.93
2022-11-20T21:22:04.975Z,137.98
2022-11-20T21:25:09.236Z,121.70
2022-11-20T21:28:17.843Z,89.32
2022-11-20T21:31:27.655Z,71.90
2022-11-20T21:34:32.729Z,65.40
2022-11-20T21:37:40.892Z,117.65
2022-11-20T21:40:44.676Z,59.03
2022-11-20T21:44:03.809Z,52.42
2022-11-20T21:47:13.886Z,135.52
2022-11-20T21:50:17.658Z,112.78
2022-11-20T21:53:22.788Z,73.75
2022-11-20T21:56:27.358Z,89.10
2022-11-20T21:59:30.952Z,63.72
2022-11-20T22:02:35.665Z,78.10
2022-11-20T22:05:39.230Z,99.50
2022-11-20T22:08:44.635Z,71.45
2022-11-20T22:11:48.158Z,59.08
2022-11-20T22:14:52.075Z,62.00
2022-11-20T22:18:12.944Z,77.10
2022-11-20T22:21:18.545Z,65.50
2022-11-20T22:24:24.648Z,57.67
2022-11-20T22:27:28.411Z,55.55
2022-11-20T22:30:32.927Z,54.58
2022-11-20T22:33:37.663Z,73.50
2022-11-20T22:36:42.373Z,64.30
2022-11-20T22:39:47.314Z,62.30
2022-11-20T22:42:51.288Z,61.20
2022-11-20T22:45:55.608Z,60.63
2022-11-20T22:49:02.180Z,58.35
2022-11-20T22:52:06.029Z,73.53
2022-11-20T22:55:16.239Z,54.85
2022-11-20T22:58:19.957Z,46.67
2022-11-20T23:01:24.961Z,57.60
2022-11-20T23:04:28.346Z,57.13
2022-11-20T23:07:34.931Z,50.13
2022-11-20T23:10:43.096Z,49.22
2022-11-20T23:13:47.456Z,51.45
2022-11-20T23:16:51.190Z,49.63
2022-11-20T23:19:54.735Z,48.70
2022-11-20T23:22:58.027Z,62.08
2022-11-20T23:26:07.729Z,56.92
2022-11-20T23:29:11.120Z,37.45
2022-11-20T23:32:14.624Z,46.10
2022-11-20T23:35:18.005Z,47.72
2022-11-20T23:38:21.984Z,51.25
2022-11-20T23:41:26.682Z,52.78
2022-11-20T23:44:30.134Z,56.42
2022-11-20T23:47:33.802Z,54.63
2022-11-20T23:50:37.308Z,52.88
2022-11-20T23:53:40.631Z,64.65
2022-11-20T23:56:45.481Z,66.03
2022-11-20T23:59:48.886Z,50.53
